Time;durP1;ratioP1;P1;durP2;ratioP2;P2;SDS_P1;SDS_P2;PMS_P1;PMS_P2;Temp;Humidity;BMP_temperature;BMP_pressure;BME280_temperature;BME280_humidity;BME280_pressure;Samples;Min_cycle;Max_cycle;Signal;HPM_P1;HPM_P2
2022/06/23 00:02:32;;;;;;;3.40;2.22;;;;;;;22.84;60.02;100584.41;5133953;27;20435;-73
2022/06/23 00:05:22;;;;;;;2.90;2.33;;;;;;;23.06;57.42;100582.81;5123088;27;20375;-72
2022/06/23 00:08:12;;;;;;;5.70;2.25;;;;;;;23.05;56.61;100575.75;5123584;27;20098;-72
2022/06/23 00:11:00;;;;;;;5.72;1.95;;;;;;;22.89;57.48;100582.28;5136787;27;20439;-73
2022/06/23 00:13:46;;;;;;;5.15;2.10;;;;;;;22.90;58.42;100590.19;5136925;27;20030;-72
2022/06/23 00:16:31;;;;;;;5.22;2.20;;;;;;;23.17;57.06;100598.06;5137190;27;20019;-72
2022/06/23 00:19:17;;;;;;;5.70;2.50;;;;;;;23.05;58.45;100601.63;5137154;27;20467;-72
2022/06/23 00:22:03;;;;;;;6.13;2.47;;;;;;;22.66;62.83;100596.38;5137223;27;20447;-72
2022/06/23 00:24:52;;;;;;;4.65;2.15;;;;;;;22.97;59.29;100599.50;5136852;27;20023;-72
2022/06/23 00:27:41;;;;;;;6.47;2.15;;;;;;;23.06;58.36;100598.84;5136490;27;20059;-71
2022/06/23 00:30:38;;;;;;;6.15;2.25;;;;;;;22.41;64.68;100612.31;5122006;27;20114;-71
2022/06/23 00:33:44;;;;;;;3.00;2.08;;;;;;;22.55;66.13;100598.94;5122737;27;20106;-71
2022/06/23 00:36:41;;;;;;;4.72;2.47;;;;;;;22.92;70.21;100603.44;5121257;27;20463;-71
2022/06/23 00:39:42;;;;;;;8.25;2.75;;;;;;;22.65;78.73;100608.88;5137290;27;20105;-71
2022/06/23 00:42:30;;;;;;;3.78;2.38;;;;;;;22.45;83.49;100603.16;5136701;27;20443;-71
2022/06/23 00:45:34;;;;;;;6.45;2.90;;;;;;;22.39;84.94;100601.75;5122487;27;20023;-71
2022/06/23 00:48:31;;;;;;;8.80;2.90;;;;;;;22.74;83.79;100599.38;5137164;27;20023;-71
2022/06/23 00:51:23;;;;;;;6.22;2.58;;;;;;;22.40;92.50;100603.47;5136829;27;20027;-71
2022/06/23 00:54:31;;;;;;;6.30;2.90;;;;;;;22.79;89.43;100598.09;5135788;27;20023;-70
2022/06/23 00:57:43;;;;;;;3.17;2.60;;;;;;;22.14;97.76;100606.19;5136375;27;20034;-71
2022/06/23 01:00:37;;;;;;;7.80;3.15;;;;;;;22.44;99.38;100604.97;5137288;27;20504;-72
2022/06/23 01:03:55;;;;;;;3.70;2.80;;;;;;;22.22;100.00;100604.72;5136465;27;20080;-70
2022/06/23 01:06:48;;;;;;;6.22;2.83;;;;;;;21.94;100.00;100601.31;5136385;27;20034;-71
2022/06/23 01:09:51;;;;;;;4.90;2.78;;;;;;;21.98;100.00;100598.31;5122508;27;20054;-71
2022/06/23 01:12:44;;;;;;;3.63;3.03;;;;;;;22.39;99.38;100595.56;5121099;27;20027;-71
2022/06/23 01:15:34;;;;;;;6.05;2.90;;;;;;;22.17;100.00;100609.50;5121627;27;20053;-71
2022/06/23 01:18:24;;;;;;;4.28;2.65;;;;;;;22.24;96.31;100602.81;5136986;27;20023;-71
2022/06/23 01:21:28;;;;;;;5.05;2.65;;;;;;;22.14;92.48;100606.19;5120913;27;20027;-72
2022/06/23 01:24:23;;;;;;;4.63;2.65;;;;;;;22.20;90.32;100603.97;5120795;27;20506;-72
2022/06/23 01:27:46;;;;;;;7.00;2.95;;;;;;;21.77;94.72;100598.88;5135593;27;20062;-72
2022/06/23 01:30:37;;;;;;;4.47;2.58;;;;;;;22.03;93.24;100590.88;5135760;27;20473;-71
2022/06/23 01:33:22;;;;;;;4.88;2.60;;;;;;;21.93;94.58;100586.25;5135942;27;20473;-71
2022/06/23 01:36:14;;;;;;;7.20;2.70;;;;;;;21.57;97.85;100584.16;5135570;27;20034;-70
2022/06/23 01:39:12;;;;;;;4.53;2.70;;;;;;;21.48;98.54;100587.41;5135979;27;20038;-71
2022/06/23 01:42:04;;;;;;;2.97;2.65;;;;;;;21.35;98.48;100581.16;5135351;27;20321;-71
2022/06/23 01:44:54;;;;;;;9.10;3.22;;;;;;;21.30;93.31;100577.91;5136017;27;20034;-72
2022/06/23 01:48:51;;;;;;;4.80;2.80;;;;;;;21.63;91.48;100575.75;5135212;27;20073;-70
2022/06/23 01:51:29;;;;;;;6.90;2.72;;;;;;;21.75;90.42;100574.13;5135421;27;20028;-71
2022/06/23 01:54:26;;;;;;;7.93;3.17;;;;;;;21.86;90.59;100580.47;5135172;27;20030;-70
2022/06/23 01:57:35;;;;;;;7.20;2.85;;;;;;;22.05;85.67;100582.75;5135173;27;20126;-72
2022/06/23 02:00:24;;;;;;;3.10;2.70;;;;;;;21.88;87.05;100581.22;5134827;27;20023;-70
2022/06/23 02:03:32;;;;;;;5.55;2.90;;;;;;;21.73;84.96;100582.22;5121072;27;20057;-71
2022/06/23 02:06:29;;;;;;;8.27;3.03;;;;;;;21.39;90.66;100590.66;5135011;27;20099;-71
2022/06/23 02:09:43;;;;;;;4.10;2.85;;;;;;;21.00;93.16;100586.97;5135337;27;20066;-71
2022/06/23 02:12:59;;;;;;;5.53;2.85;;;;;;;21.01;91.42;100594.88;5135197;27;20050;-70
2022/06/23 02:16:04;;;;;;;7.68;3.10;;;;;;;21.35;88.10;100593.63;5119674;27;20371;-70
2022/06/23 02:18:59;;;;;;;5.35;2.60;;;;;;;21.25;90.15;100596.00;5135420;27;20023;-71
2022/06/23 02:22:01;;;;;;;5.63;2.60;;;;;;;21.00;94.99;100592.31;5134455;27;20553;-71
2022/06/23 02:25:03;;;;;;;4.43;2.88;;;;;;;21.53;90.52;100590.63;5134563;27;20073;-70
2022/06/23 02:28:31;;;;;;;5.65;2.70;;;;;;;21.59;92.99;100592.06;5133633;27;20047;-71
2022/06/23 02:31:31;;;;;;;7.15;3.08;;;;;;;21.33;94.41;100590.19;5133932;27;20426;-72
2022/06/23 02:34:26;;;;;;;5.60;3.10;;;;;;;21.69;90.47;100593.16;5133887;27;20457;-70
2022/06/23 02:37:50;;;;;;;4.20;2.75;;;;;;;21.52;90.35;100594.25;5134604;27;20027;-71
2022/06/23 02:40:41;;;;;;;8.27;2.83;;;;;;;21.41;93.09;100587.88;5133896;27;20108;-71
2022/06/23 02:43:58;;;;;;;7.57;3.10;;;;;;;21.58;92.16;100593.84;5134040;27;20041;-71
2022/06/23 02:46:55;;;;;;;4.90;3.20;;;;;;;21.46;92.42;100591.13;5133413;27;20023;-72
2022/06/23 02:50:02;;;;;;;6.53;3.13;;;;;;;20.82;95.23;100594.25;5134692;27;20023;-71
2022/06/23 02:53:09;;;;;;;5.80;2.92;;;;;;;20.84;95.49;100581.72;5119357;27;20027;-71
2022/06/23 02:56:18;;;;;;;5.72;2.90;;;;;;;20.64;100.00;100582.06;5134377;27;20023;-72
2022/06/23 02:59:07;;;;;;;6.35;3.00;;;;;;;21.13;95.26;100588.78;5134222;27;20455;-72
2022/06/23 03:02:00;;;;;;;4.35;2.78;;;;;;;21.23;94.94;100594.41;5134013;27;20042;-71
2022/06/23 03:04:49;;;;;;;7.93;3.00;;;;;;;21.03;94.93;100594.78;5134292;27;20324;-72
2022/06/23 03:08:17;;;;;;;5.47;3.20;;;;;;;20.35;100.00;100612.25;5134008;27;20377;-71
2022/06/23 03:11:14;;;;;;;5.88;3.20;;;;;;;20.78;97.60;100606.03;5113251;27;20503;-71
2022/06/23 03:14:00;;;;;;;6.00;3.20;;;;;;;20.95;96.21;100599.72;5119682;27;20026;-72
2022/06/23 03:16:52;;;;;;;6.10;3.20;;;;;;;21.26;95.57;100584.38;5133543;27;20030;-71
2022/06/23 03:19:59;;;;;;;9.40;3.05;;;;;;;21.18;97.15;100597.34;5119562;27;20023;-70
2022/06/23 03:22:54;;;;;;;6.35;3.10;;;;;;;21.23;98.37;100603.25;5133618;27;20111;-71
2022/06/23 03:26:15;;;;;;;7.72;3.13;;;;;;;20.82;100.00;100610.22;5134200;28;20027;-71
2022/06/23 03:29:16;;;;;;;4.97;3.35;;;;;;;21.08;99.55;100622.00;5085666;28;20134;-71
2022/06/23 03:32:10;;;;;;;3.80;3.20;;;;;;;20.38;100.00;100624.50;5113772;28;20356;-72
2022/06/23 03:35:04;;;;;;;6.13;3.10;;;;;;;20.27;100.00;100616.28;5113925;28;20099;-72
2022/06/23 03:38:11;;;;;;;4.88;3.05;;;;;;;20.49;100.00;100622.91;5114570;28;20031;-71
2022/06/23 03:44:04;;;;;;;6.97;3.22;;;;;;;20.61;100.00;100632.00;5118329;28;20110;-71
2022/06/23 03:46:55;;;;;;;7.30;3.38;;;;;;;20.63;100.00;100628.28;5118590;28;20084;-71
2022/06/23 03:49:48;;;;;;;6.43;3.38;;;;;;;21.02;100.00;100636.53;5118213;28;20027;-73
2022/06/23 03:52:47;;;;;;;7.43;3.13;;;;;;;21.40;100.00;100640.34;5108791;28;20027;-70
2022/06/23 03:55:40;;;;;;;5.40;3.05;;;;;;;21.57;98.31;100642.81;5139519;28;20049;-71
2022/06/23 03:58:28;;;;;;;12.57;3.47;;;;;;;21.40;98.80;100644.81;5140804;28;20027;-72
2022/06/23 04:01:48;;;;;;;8.40;3.70;;;;;;;21.26;97.51;100651.00;5139494;28;20028;-70
2022/06/23 04:05:01;;;;;;;9.00;5.15;;;;;;;21.43;98.58;100656.16;5140118;28;20138;-71
2022/06/23 04:08:00;;;;;;;9.45;3.63;;;;;;;21.27;100.00;100646.53;5127270;28;20099;-71
2022/06/23 04:10:46;;;;;;;10.75;3.90;;;;;;;21.31;99.71;100651.59;5124960;28;20032;-71
2022/06/23 04:13:38;;;;;;;9.02;3.25;;;;;;;21.20;100.00;100648.75;5137862;28;20031;-71
2022/06/23 04:16:25;;;;;;;5.90;3.30;;;;;;;21.22;100.00;100652.16;5128245;28;20031;-71
2022/06/23 04:19:19;;;;;;;9.57;4.00;;;;;;;21.27;100.00;100658.06;5126763;28;20058;-71
2022/06/23 04:22:27;;;;;;;13.00;3.67;;;;;;;21.20;100.00;100645.22;5125368;28;20034;-71
2022/06/23 04:25:22;;;;;;;7.65;3.53;;;;;;;21.38;100.00;100655.56;5123561;28;20031;-71
2022/06/23 04:28:30;;;;;;;6.93;3.22;;;;;;;21.48;100.00;100656.72;5139604;27;20047;-71
2022/06/23 04:31:34;;;;;;;12.13;3.60;;;;;;;21.37;100.00;100659.19;5138313;27;20038;-72
2022/06/23 04:34:27;;;;;;;6.78;3.63;;;;;;;21.74;100.00;100663.94;5122430;27;20083;-71
2022/06/23 04:37:41;;;;;;;6.85;3.60;;;;;;;21.81;100.00;100657.28;5137511;27;20023;-71
2022/06/23 04:40:48;;;;;;;5.82;3.65;;;;;;;21.80;100.00;100663.56;5136866;27;20023;-71
2022/06/23 04:43:44;;;;;;;7.43;3.75;;;;;;;21.77;100.00;100676.22;5136761;27;20102;-70
2022/06/23 04:46:40;;;;;;;10.75;3.60;;;;;;;21.55;100.00;100673.19;5136823;27;20393;-71
2022/06/23 04:49:40;;;;;;;6.90;3.30;;;;;;;21.56;100.00;100681.09;5121546;27;20030;-70
2022/06/23 04:52:41;;;;;;;10.88;3.30;;;;;;;21.61;100.00;100681.66;5136647;27;20117;-71
2022/06/23 04:55:31;;;;;;;10.13;3.72;;;;;;;21.84;100.00;100680.22;5136361;27;20031;-70
2022/06/23 04:58:22;;;;;;;23.02;4.53;;;;;;;22.02;100.00;100685.22;5136565;27;20030;-71
2022/06/23 05:01:15;;;;;;;7.80;3.72;;;;;;;22.04;100.00;100694.00;5122312;27;20015;-71
2022/06/23 05:04:03;;;;;;;8.77;3.95;;;;;;;21.88;100.00;100692.41;5121017;27;20023;-71
2022/06/23 05:06:53;;;;;;;8.02;3.47;;;;;;;22.05;100.00;100700.19;5136682;27;20054;-70
2022/06/23 05:09:41;;;;;;;11.35;4.07;;;;;;;22.09;99.72;100710.56;5122053;27;20066;-72
2022/06/23 05:12:29;;;;;;;5.60;3.35;;;;;;;22.08;99.61;100706.19;5137932;27;20023;-70
2022/06/23 05:15:21;;;;;;;7.78;3.45;;;;;;;22.37;99.00;100710.47;5139640;27;20024;-71
2022/06/23 05:18:20;;;;;;;7.93;3.30;;;;;;;22.62;97.37;100715.94;5121832;27;20027;-71
2022/06/23 05:21:21;;;;;;;6.65;3.40;;;;;;;22.95;93.82;100723.50;5121689;27;20042;-71
2022/06/23 05:24:15;;;;;;;15.55;3.92;;;;;;;23.12;91.44;100726.69;5136663;27;20451;-71
2022/06/23 05:27:24;;;;;;;5.38;3.20;;;;;;;22.98;92.73;100740.16;5137091;27;20055;-70
2022/06/23 05:30:18;;;;;;;7.63;3.10;;;;;;;22.78;92.11;100735.31;5135865;27;20478;-70
2022/06/23 05:33:21;;;;;;;6.88;3.10;;;;;;;22.95;93.80;100739.53;5136512;27;20424;-71
2022/06/23 05:36:20;;;;;;;8.82;3.20;;;;;;;22.77;95.34;100738.94;5120478;27;20163;-71
2022/06/23 05:39:48;;;;;;;5.20;3.28;;;;;;;22.96;95.40;100742.09;5122104;27;20083;-71
2022/06/23 05:42:40;;;;;;;6.65;3.40;;;;;;;23.34;94.57;100743.00;5040746;28;20408;-71
2022/06/23 05:45:48;;;;;;;6.40;2.90;;;;;;;23.65;88.37;100751.53;5135998;27;20023;-71
2022/06/23 05:48:41;;;;;;;10.48;3.17;;;;;;;23.50;85.36;100763.34;5135477;27;20042;-70
2022/06/23 05:51:44;;;;;;;8.95;3.30;;;;;;;23.85;84.42;100759.88;5135802;27;20030;-70
2022/06/23 05:54:41;;;;;;;8.82;3.30;;;;;;;24.02;80.28;100777.47;5134908;27;20045;-70
2022/06/23 05:57:43;;;;;;;5.95;3.63;;;;;;;24.01;77.87;100768.56;5135223;27;20467;-70
2022/06/23 06:00:54;;;;;;;12.77;3.40;;;;;;;23.75;74.51;100779.38;5134771;27;20046;-70
2022/06/23 06:03:53;;;;;;;8.18;2.80;;;;;;;24.01;77.99;100787.31;5120723;27;20095;-70
2022/06/23 06:06:40;;;;;;;8.40;2.90;;;;;;;24.27;80.25;100788.94;5120676;27;20034;-71
2022/06/23 06:09:36;;;;;;;7.93;2.70;;;;;;;24.17;78.14;100787.91;5120698;27;20023;-71
2022/06/23 06:12:27;;;;;;;5.90;2.90;;;;;;;24.75;77.54;100784.53;5135307;27;20455;-70
2022/06/23 06:15:15;;;;;;;5.03;2.92;;;;;;;24.93;76.35;100791.16;5134746;27;20059;-71
2022/06/23 06:18:17;;;;;;;16.73;3.35;;;;;;;24.95;78.49;100783.88;5120698;27;20023;-70
2022/06/23 06:21:07;;;;;;;9.75;2.72;;;;;;;24.47;72.40;100777.63;5135061;27;20031;-71
2022/06/23 06:24:03;;;;;;;8.93;2.40;;;;;;;24.28;69.76;100777.28;5134116;27;20091;-71
2022/06/23 06:26:52;;;;;;;7.45;3.10;;;;;;;24.68;74.69;100784.13;5134207;27;20046;-71
2022/06/23 06:29:43;;;;;;;4.50;2.40;;;;;;;25.21;63.72;100775.56;5134543;27;20023;-71
2022/06/23 06:32:34;;;;;;;8.23;3.00;;;;;;;25.29;67.31;100775.84;5134411;27;20051;-70
2022/06/23 06:35:29;;;;;;;6.25;2.70;;;;;;;25.16;61.59;100768.84;5134273;27;20031;-71
2022/06/23 06:38:17;;;;;;;4.63;2.20;;;;;;;25.59;59.02;100768.09;5134911;27;20043;-71
2022/06/23 06:41:03;;;;;;;4.95;2.50;;;;;;;25.88;55.10;100757.75;5134924;27;20038;-70
2022/06/23 06:43:49;;;;;;;4.68;2.50;;;;;;;26.02;54.33;100754.81;5124656;27;20095;-73
2022/06/23 06:46:38;;;;;;;5.85;2.25;;;;;;;26.36;51.74;100762.69;5138373;27;20385;-70
2022/06/23 06:49:28;;;;;;;6.88;2.72;;;;;;;26.14;50.75;100751.16;5137962;27;20023;-70
2022/06/23 06:52:15;;;;;;;5.97;2.70;;;;;;;26.18;51.46;100749.91;5122100;27;20340;-75
2022/06/23 06:55:38;;;;;;;8.63;2.60;;;;;;;25.77;54.43;100747.88;5129618;27;20135;-73
2022/06/23 06:58:30;;;;;;;5.00;2.30;;;;;;;26.77;52.04;100753.94;5131208;27;20027;-73
2022/06/23 07:01:23;;;;;;;6.90;2.30;;;;;;;26.73;50.99;100747.94;5139546;27;20015;-73
2022/06/23 07:04:16;;;;;;;6.20;3.20;;;;;;;25.65;54.08;100739.91;5137223;27;20091;-74
2022/06/23 07:07:06;;;;;;;7.25;2.70;;;;;;;26.76;52.45;100739.63;5120204;27;20022;-74
2022/06/23 07:09:58;;;;;;;9.82;4.75;;;;;;;25.94;55.80;100742.03;5123276;27;20023;-74
2022/06/23 07:12:52;;;;;;;6.03;4.15;;;;;;;26.55;53.12;100732.47;5126048;27;20031;-74
2022/06/23 07:15:45;;;;;;;7.57;4.90;;;;;;;25.89;53.95;100722.72;5137026;27;20034;-74
2022/06/23 07:19:01;;;;;;;5.65;2.50;;;;;;;25.83;55.57;100715.16;5130388;27;20034;-73
2022/06/23 07:22:16;;;;;;;6.03;2.75;;;;;;;26.51;52.38;100712.22;5150634;27;20023;-73
2022/06/23 07:25:10;;;;;;;10.45;3.00;;;;;;;26.68;50.69;100707.16;5146489;27;20019;-73
2022/06/23 07:27:58;;;;;;;5.60;2.47;;;;;;;27.48;48.98;100692.13;5130038;28;20058;-73
2022/06/23 07:30:53;;;;;;;6.38;2.55;;;;;;;27.70;47.71;100686.59;5135780;28;20023;-73
2022/06/23 07:33:53;;;;;;;7.55;2.75;;;;;;;27.44;47.62;100680.81;5144760;28;20075;-73
2022/06/23 07:36:46;;;;;;;6.97;2.40;;;;;;;27.03;48.45;100677.28;5141069;28;20027;-74
2022/06/23 07:39:37;;;;;;;2.70;2.20;;;;;;;27.06;48.36;100679.72;5148766;28;20029;-74
2022/06/23 07:42:37;;;;;;;5.93;2.25;;;;;;;27.43;47.78;100670.16;5142550;28;20031;-75
2022/06/23 07:45:39;;;;;;;5.80;2.30;;;;;;;27.01;48.46;100649.66;5144640;28;20028;-74
2022/06/23 07:48:28;;;;;;;6.43;2.35;;;;;;;27.58;47.04;100644.59;5141649;28;20088;-70
2022/06/23 07:51:14;;;;;;;4.88;2.25;;;;;;;26.61;48.14;100635.25;5134120;28;20027;-71
2022/06/23 07:54:00;;;;;;;5.03;2.40;;;;;;;27.94;45.57;100622.47;5134147;28;20030;-70
2022/06/23 07:56:47;;;;;;;4.95;2.38;;;;;;;26.87;44.94;100617.72;5136600;28;20428;-71
2022/06/23 07:59:42;;;;;;;3.20;2.10;;;;;;;26.71;45.24;100625.41;5135533;28;20035;-74
2022/06/23 08:02:41;;;;;;;9.93;2.20;;;;;;;26.57;46.00;100613.09;5148074;28;20019;-74
2022/06/23 08:05:40;;;;;;;8.02;2.20;;;;;;;26.97;45.33;100597.97;5135340;28;20076;-75
2022/06/23 08:08:30;;;;;;;4.53;2.20;;;;;;;27.53;43.03;100612.69;5147973;28;20027;-74
2022/06/23 08:14:35;;;;;;;5.93;2.88;;;;;;;27.79;43.81;100604.97;5147619;28;20033;-76
2022/06/23 08:17:21;;;;;;;3.42;2.20;;;;;;;27.44;44.01;100600.06;5142972;28;20106;-74
2022/06/23 08:20:10;;;;;;;7.18;1.92;;;;;;;26.68;45.51;100606.88;5129532;28;20029;-74
2022/06/23 08:23:01;;;;;;;7.22;2.05;;;;;;;27.38;44.62;100605.13;5120265;28;20023;-71
2022/06/23 08:25:47;;;;;;;6.18;2.80;;;;;;;28.05;44.08;100610.72;5121534;27;20045;-71
2022/06/23 08:28:34;;;;;;;6.13;2.47;;;;;;;28.39;43.01;100636.25;5137139;27;20506;-70
2022/06/23 08:31:20;;;;;;;4.32;1.80;;;;;;;28.29;43.27;100635.41;5123868;27;20023;-71
2022/06/23 08:34:07;;;;;;;6.35;2.50;;;;;;;28.59;42.34;100641.53;5136807;27;20023;-71
2022/06/23 08:37:03;;;;;;;7.03;2.70;;;;;;;28.98;41.71;100643.19;5137050;27;20034;-71
2022/06/23 08:39:48;;;;;;;4.55;2.08;;;;;;;28.94;42.18;100655.28;5137165;27;20090;-71
2022/06/23 08:42:59;;;;;;;6.68;2.38;;;;;;;28.89;41.36;100664.78;5137201;27;20435;-71
2022/06/23 08:45:55;;;;;;;6.70;2.47;;;;;;;28.68;44.98;100675.72;5142975;27;20070;-73
2022/06/23 08:49:11;;;;;;;8.38;3.63;;;;;;;28.28;45.00;100668.75;5139615;27;20487;-75
2022/06/23 08:52:12;;;;;;;7.28;2.85;;;;;;;28.22;46.40;100672.84;5146643;27;20048;-74
2022/06/23 08:55:21;;;;;;;5.47;3.50;;;;;;;27.96;45.42;100676.22;5149146;27;20033;-74
2022/06/23 08:58:21;;;;;;;9.70;2.65;;;;;;;28.51;43.81;100679.16;5143444;27;20031;-72
2022/06/23 09:01:34;;;;;;;5.57;2.33;;;;;;;28.05;44.76;100687.00;5137232;27;20031;-71
2022/06/23 09:04:34;;;;;;;4.47;2.20;;;;;;;28.27;45.36;100686.75;5136296;27;20042;-71
2022/06/23 09:07:47;;;;;;;6.30;2.00;;;;;;;27.85;43.39;100684.41;5136741;27;20102;-71
2022/06/23 09:10:54;;;;;;;8.02;1.95;;;;;;;27.34;43.91;100689.81;5124968;27;20106;-70
2022/06/23 09:13:54;;;;;;;5.28;2.10;;;;;;;27.14;45.55;100694.22;5136763;27;20031;-70
2022/06/23 09:17:15;;;;;;;8.68;2.20;;;;;;;27.58;45.88;100688.50;5136319;27;20015;-70
2022/06/23 09:20:31;;;;;;;3.90;2.03;;;;;;;28.72;44.07;100689.81;5137065;27;20484;-70
2022/06/23 09:23:35;;;;;;;3.67;2.20;;;;;;;29.37;43.42;100697.97;5136299;27;20038;-76
2022/06/23 09:26:50;;;;;;;2.95;2.20;;;;;;;29.41;42.72;100694.78;5137601;27;20047;-75
2022/06/23 09:30:00;;;;;;;2.80;1.70;;;;;;;29.55;42.41;100686.22;5121243;27;20035;-74
2022/06/23 09:32:54;;;;;;;5.43;1.90;;;;;;;29.25;42.02;100686.47;5136638;27;20393;-75
2022/06/23 09:36:19;;;;;;;4.32;1.90;;;;;;;29.34;42.71;100695.53;5136367;27;20023;-74
2022/06/23 09:39:11;;;;;;;4.85;2.05;;;;;;;29.50;41.65;100682.28;5120989;27;20023;-73
2022/06/23 09:42:34;;;;;;;3.88;2.03;;;;;;;29.47;42.10;100685.25;5121682;27;20023;-75
2022/06/23 09:45:54;;;;;;;4.20;2.00;;;;;;;29.48;42.54;100687.81;5122670;27;20023;-75
2022/06/23 09:49:08;;;;;;;11.93;2.72;;;;;;;29.29;42.11;100687.88;5136144;27;20444;-74
2022/06/23 09:52:06;;;;;;;24.48;16.08;;;;;;;29.20;43.20;100696.00;5122892;27;20035;-75
2022/06/23 09:54:54;;;;;;;24.70;17.17;;;;;;;29.67;41.56;100697.72;5137540;27;20019;-71
2022/06/23 09:57:49;;;;;;;9.10;3.30;;;;;;;29.04;41.83;100688.50;5136504;27;20015;-75
2022/06/23 10:00:52;;;;;;;10.35;2.20;;;;;;;29.81;39.68;100689.97;5121792;27;20026;-76
2022/06/23 10:03:47;;;;;;;5.82;2.15;;;;;;;28.85;39.67;100693.06;5135851;27;20023;-75
2022/06/23 10:06:51;;;;;;;11.25;2.10;;;;;;;28.70;40.32;100689.94;5136138;27;20022;-75
2022/06/23 10:09:51;;;;;;;7.90;2.20;;;;;;;29.07;39.88;100687.34;5135285;27;20066;-70
2022/06/23 10:13:19;;;;;;;3.78;1.92;;;;;;;29.37;40.34;100689.84;5135062;27;20024;-70
2022/06/23 10:16:10;;;;;;;8.07;1.90;;;;;;;29.60;40.11;100686.66;5105311;27;20477;-71
2022/06/23 10:19:33;;;;;;;11.95;2.58;;;;;;;29.38;42.01;100684.31;5135061;27;20031;-70
2022/06/23 10:22:37;;;;;;;7.72;2.30;;;;;;;29.85;41.73;100687.84;5119734;27;20110;-73
2022/06/23 10:25:51;;;;;;;8.52;2.30;;;;;;;29.82;41.04;100688.97;5120452;27;20080;-70
2022/06/23 10:28:44;;;;;;;5.00;2.20;;;;;;;29.76;42.29;100689.56;5134987;27;20043;-70
2022/06/23 10:31:36;;;;;;;4.32;1.63;;;;;;;30.17;39.53;100677.41;5135082;27;20023;-70
2022/06/23 10:34:54;;;;;;;2.33;2.05;;;;;;;30.69;37.54;100691.00;5134771;27;20072;-75
2022/06/23 10:37:53;;;;;;;4.82;2.30;;;;;;;30.64;38.33;100682.47;5135574;27;20079;-76
2022/06/23 10:41:06;;;;;;;6.63;2.30;;;;;;;29.60;41.89;100683.09;5120921;27;20022;-71
2022/06/23 10:44:13;;;;;;;4.20;2.17;;;;;;;28.70;43.46;100675.59;5123073;27;20027;-71
2022/06/23 10:47:03;;;;;;;5.25;2.20;;;;;;;28.20;42.67;100677.50;5136306;27;20066;-71
2022/06/23 10:50:04;;;;;;;7.32;2.10;;;;;;;28.15;42.78;100676.22;5126725;27;20079;-71
2022/06/23 10:53:23;;;;;;;6.38;2.20;;;;;;;29.90;40.64;100680.97;5134776;27;20471;-71
2022/06/23 10:56:33;;;;;;;5.78;2.30;;;;;;;30.08;40.07;100676.47;5120551;27;20119;-75
2022/06/23 10:59:30;;;;;;;7.07;2.63;;;;;;;29.33;39.06;100678.47;5135205;27;20027;-77
2022/06/23 11:02:46;;;;;;;10.68;4.47;;;;;;;28.94;39.85;100681.38;5134514;27;20027;-71
2022/06/23 11:05:50;;;;;;;10.40;2.50;;;;;;;30.23;38.50;100676.81;5134273;27;20471;-71
2022/06/23 11:09:05;;;;;;;5.78;1.98;;;;;;;30.11;36.09;100669.91;5135658;27;20027;-70
2022/06/23 11:12:09;;;;;;;4.72;2.08;;;;;;;29.75;37.09;100673.53;5116371;27;20380;-75
2022/06/23 11:15:01;;;;;;;2.95;2.03;;;;;;;30.03;36.60;100664.41;5134957;27;20023;-73
2022/06/23 11:18:01;;;;;;;3.67;1.83;;;;;;;29.81;37.00;100657.56;5134377;27;20061;-71
2022/06/23 11:21:22;;;;;;;5.13;1.92;;;;;;;29.25;39.30;100645.97;5134351;27;20054;-71
2022/06/23 11:24:16;;;;;;;5.97;1.85;;;;;;;29.40;38.81;100659.84;5117120;27;20352;-71
2022/06/23 11:27:28;;;;;;;5.70;1.60;;;;;;;29.51;39.41;100659.66;5133737;27;20083;-70
2022/06/23 11:30:29;;;;;;;5.85;1.65;;;;;;;29.60;40.06;100658.78;5134205;28;20031;-74
2022/06/23 11:33:43;;;;;;;7.70;1.83;;;;;;;29.14;38.86;100658.81;5133766;28;20019;-75
2022/06/23 11:36:49;;;;;;;5.50;2.80;;;;;;;29.13;39.26;100665.22;5134831;28;20031;-74
2022/06/23 11:39:44;;;;;;;4.45;2.60;;;;;;;29.25;38.24;100664.88;5134122;28;20038;-74
2022/06/23 11:43:24;;;;;;;4.78;2.20;;;;;;;29.65;37.92;100678.13;5120025;28;20015;-70
2022/06/23 11:46:19;;;;;;;6.22;1.80;;;;;;;29.14;37.50;100672.28;5057116;28;20056;-72
2022/06/23 11:49:32;;;;;;;3.60;2.13;;;;;;;29.73;37.38;100676.38;5144695;28;20501;-71
2022/06/23 11:52:30;;;;;;;4.45;1.70;;;;;;;29.59;37.15;100678.72;5134258;28;20023;-75
2022/06/23 11:55:25;;;;;;;9.68;1.80;;;;;;;29.55;36.71;100671.88;5134351;28;20027;-74
2022/06/23 11:58:39;;;;;;;6.25;1.83;;;;;;;29.58;36.48;100672.44;5134063;27;20023;-75
2022/06/23 12:01:25;;;;;;;2.60;1.80;;;;;;;29.75;36.77;100673.53;5123373;27;20027;-74
2022/06/23 12:04:49;;;;;;;3.80;1.80;;;;;;;30.00;36.90;100668.25;5137433;27;20110;-71
2022/06/23 12:07:40;;;;;;;3.70;1.50;;;;;;;29.72;36.17;100669.28;5137014;27;20053;-72
2022/06/23 12:10:28;;;;;;;3.03;1.60;;;;;;;29.42;36.96;100666.81;5137664;27;20070;-72
2022/06/23 12:13:14;;;;;;;3.42;1.52;;;;;;;29.45;36.60;100671.06;5137187;27;20344;-73
2022/06/23 12:16:00;;;;;;;1.67;1.55;;;;;;;29.85;35.73;100671.63;5122637;27;20340;-72
2022/06/23 12:18:49;;;;;;;3.90;1.50;;;;;;;29.98;36.17;100677.53;5137238;27;20447;-74
2022/06/23 12:21:49;;;;;;;5.95;1.73;;;;;;;29.72;36.44;100681.91;5137436;27;20392;-75
2022/06/23 12:24:42;;;;;;;5.57;1.80;;;;;;;29.62;36.70;100678.41;5121973;27;20036;-75
2022/06/23 12:27:36;;;;;;;2.30;1.75;;;;;;;29.40;37.49;100676.03;5137199;27;20042;-71
2022/06/23 12:30:26;;;;;;;7.90;1.80;;;;;;;29.73;36.71;100679.06;5137330;27;20033;-71
2022/06/23 12:33:33;;;;;;;5.30;1.92;;;;;;;29.48;36.99;100679.72;5137073;27;20027;-71
2022/06/23 12:36:34;;;;;;;7.00;2.70;;;;;;;29.53;37.07;100674.72;5137187;27;20443;-72
2022/06/23 12:39:48;;;;;;;3.25;1.60;;;;;;;29.38;36.94;100664.56;5137811;27;20412;-75
2022/06/23 12:42:45;;;;;;;3.17;1.70;;;;;;;29.61;36.36;100658.66;5137454;27;20452;-75
2022/06/23 12:45:59;;;;;;;3.92;1.90;;;;;;;29.49;36.77;100661.69;5122555;27;20038;-74
2022/06/23 12:48:54;;;;;;;4.88;1.60;;;;;;;30.05;36.09;100660.53;5123380;27;20030;-78
2022/06/23 12:51:49;;;;;;;5.35;1.83;;;;;;;29.63;36.39;100645.00;5136532;27;20027;-74
2022/06/23 12:55:04;;;;;;;19.73;15.38;;;;;;;29.82;36.54;100658.41;5137053;27;20019;-75
2022/06/23 12:57:59;;;;;;;4.43;2.10;;;;;;;29.98;36.17;100659.44;5137289;27;20065;-74
2022/06/23 13:00:52;;;;;;;3.30;1.98;;;;;;;30.47;35.45;100664.41;5136493;27;20031;-70
2022/06/23 13:03:50;;;;;;;7.38;1.80;;;;;;;31.04;35.80;100660.31;5122176;27;20024;-70
2022/06/23 13:06:59;;;;;;;3.13;1.70;;;;;;;30.79;35.00;100653.88;5136811;27;20409;-70
2022/06/23 13:10:16;;;;;;;6.97;1.80;;;;;;;29.77;36.72;100637.25;5136593;27;20035;-75
2022/06/23 13:13:17;;;;;;;5.32;2.35;;;;;;;29.55;37.16;100650.25;5136412;27;20127;-76
2022/06/23 13:16:10;;;;;;;3.88;2.05;;;;;;;29.81;36.02;100646.75;5136747;27;20498;-76
2022/06/23 13:19:16;;;;;;;2.72;1.80;;;;;;;29.89;36.27;100644.13;5135921;27;20034;-74
2022/06/23 13:22:08;;;;;;;3.53;1.75;;;;;;;29.57;36.27;100640.19;5136133;27;20459;-70
2022/06/23 13:24:56;;;;;;;4.03;1.65;;;;;;;29.76;36.48;100637.38;5136752;27;20451;-70
2022/06/23 13:27:49;;;;;;;5.28;1.80;;;;;;;30.43;36.91;100649.50;5135460;27;20453;-70
2022/06/23 13:30:59;;;;;;;7.47;2.38;;;;;;;29.93;36.55;100642.00;5136224;27;20019;-73
2022/06/23 13:33:57;;;;;;;2.53;1.80;;;;;;;28.88;36.81;100636.09;5135215;27;20118;-74
2022/06/23 13:36:53;;;;;;;4.32;1.98;;;;;;;29.77;37.10;100633.72;5136234;27;20027;-74
2022/06/23 13:39:55;;;;;;;6.00;2.70;;;;;;;30.01;37.67;100645.63;5121561;27;20088;-75
2022/06/23 13:42:46;;;;;;;5.53;2.13;;;;;;;29.88;37.34;100639.75;5135939;27;20023;-71
2022/06/23 13:45:53;;;;;;;4.45;1.63;;;;;;;30.40;36.50;100640.81;5135399;27;20046;-71
2022/06/23 13:49:00;;;;;;;2.00;1.80;;;;;;;30.48;36.70;100632.78;5135556;27;20026;-71
2022/06/23 13:51:53;;;;;;;4.20;1.80;;;;;;;30.66;36.65;100649.88;5120866;27;20042;-69
2022/06/23 13:54:46;;;;;;;4.85;1.80;;;;;;;29.88;36.95;100645.16;5135932;27;20050;-71
2022/06/23 13:57:53;;;;;;;4.95;2.00;;;;;;;29.49;37.52;100642.78;5135642;27;20035;-70
2022/06/23 14:00:48;;;;;;;3.85;2.00;;;;;;;29.92;37.04;100638.44;5135184;27;20015;-70